Aberdeen, SD

9:03 AM CDT on April 01, 2015 (GMT -0500)
Simmons | | Change Station
CLOSE
Current Station
Personal Weather Station
Location: Aberdeen, SD
Elevation: 1312 ft
Nearby Weather Stations
Active Advisory: Fire Weather Warning

Elev 1312 ft 45.45 °N, 98.49 °W | Updated 1 minute ago

Partly Cloudy
Partly Cloudy
54.7 °F
Feels Like 54.7 °F
N
6.3
Wind Variable Wind from South

Today
High -- | Low -- °F
--% Chance of Precip.
Yesterday
High -- | Low -- °F
Precip. -- in
7:14 AM 8:01 PM
Waxing Gibbous, 92% visible
Pressure 29.42 in
Visibility 10.0 miles
Clouds Clear
Dew Point 39 °F
Humidity 56%
Rainfall 0.00 in
Snow Depth Not available.
UV 1 out of 12
Pollen 3.60 out of 12
Air Quality Not available.
Flu Activity Not available.
METAR KABR 011353Z AUTO 17017KT 10SM CLR 13/01 A2942 RMK AO2 PK WND 16026/1335 SLP960 T01330011

More Conditions Fewer Conditions

Pressure 29.42 in
Visibility 10.0 miles
Clouds Clear
Dew Point 39 °F
Humidity 56%
Rainfall 0.00 in
Snow Depth Not available.
UV 1 out of 12
Pollen 3.60 out of 12
Air Quality Not available.
Flu Activity Not available.
METAR KABR 011353Z AUTO 17017KT 10SM CLR 13/01 A2942 RMK AO2 PK WND 16026/1335 SLP960 T01330011

More Conditions Fewer Conditions

10-Day Weather Forecast

Almanac

Astronomy

Apr. 01, 2015 Rise Set
Actual Time
Civil Twilight
Nautical Twilight
Astronomical Twilight
Moon
Length of Visible Light
Length of Day
Tomorrow will be .
, % of the Moon is Illuminated

Today's Extremes

State Highs State Lows

Community

WunderPhotos

Upload Photos

1,809,959 photos uploaded!

WunderBlogs® & News

Nearby

Air Quality

  Air Quality AQ Index Pollutant
Not available.

Snow Depth

Station Depth Elevation

Earthquake Activity

City Distance Mag. Time & Date
Minimum magnitude displayed is 2.5.

Coastal Water Temperatures

Place Temperature

Stations

Nearby Weather Stations

Station Location Temp. Windchill Dew Point Humidity Wind Precip. Elev Updated Type
                   
Fire Weather Warning
Statement as of 2:43 AM MDT on April 01, 2015

... Red flag warning remains in effect from noon CDT /11 am MDT/
today to 8 PM CDT /7 PM MDT/ this evening for wind and low
relative humidity for fire weather zones 267... 268... 269...
270 and 271...

* affected area... in South Dakota... fire weather zones 267...
268... 269... 270 and 271.

* Winds... northwest 25 to 35 mph with gusts around 40 mph.
Portions of central South Dakota could see gusts to 50 mph.

* Relative humidity... 15 to 20 percent. The lowest readings will
be across central South Dakota.

* Impacts... fires will spread very quickly due to dead fuels...
gusty winds and low relative humidity.

Precautionary/preparedness actions...

A red flag warning means that critical fire weather conditions
are either occurring now... or will shortly. A combination of
strong winds... low relative humidity... and warm temperatures can
contribute to extreme fire behavior.